sensor_id;sensor_type;location;lat;lon;timestamp;P1;durP1;ratioP1;P2;durP2;ratioP2
9322;SDS011;4700;48.822;9.270;2022-12-18T08:42:21;33.35;;;21.20;;
9322;SDS011;4700;48.822;9.270;2022-12-18T08:45:27;31.48;;;21.13;;
9322;SDS011;4700;48.822;9.270;2022-12-18T08:48:16;28.20;;;17.98;;
9322;SDS011;4700;48.822;9.270;2022-12-18T08:56:15;26.10;;;20.23;;
9322;SDS011;4700;48.822;9.270;2022-12-18T08:59:05;31.23;;;24.83;;
9322;SDS011;4700;48.822;9.270;2022-12-18T09:01:53;30.65;;;22.52;;
9322;SDS011;4700;48.822;9.270;2022-12-18T09:04:42;35.33;;;24.73;;
9322;SDS011;4700;48.822;9.270;2022-12-18T09:07:29;28.17;;;20.83;;
9322;SDS011;4700;48.822;9.270;2022-12-18T09:10:19;25.60;;;18.02;;
9322;SDS011;4700;48.822;9.270;2022-12-18T09:13:06;26.08;;;20.20;;
9322;SDS011;4700;48.822;9.270;2022-12-18T09:15:54;37.95;;;24.85;;
9322;SDS011;4700;48.822;9.270;2022-12-18T09:18:42;26.25;;;21.38;;
9322;SDS011;4700;48.822;9.270;2022-12-18T09:21:30;25.75;;;20.50;;
9322;SDS011;4700;48.822;9.270;2022-12-18T09:24:19;38.08;;;22.77;;
9322;SDS011;4700;48.822;9.270;2022-12-18T09:27:06;49.03;;;29.42;;
9322;SDS011;4700;48.822;9.270;2022-12-18T09:29:53;30.90;;;23.25;;
9322;SDS011;4700;48.822;9.270;2022-12-18T09:32:41;34.78;;;24.25;;
9322;SDS011;4700;48.822;9.270;2022-12-18T09:35:27;38.83;;;23.90;;
9322;SDS011;4700;48.822;9.270;2022-12-18T09:38:14;36.63;;;24.75;;
9322;SDS011;4700;48.822;9.270;2022-12-18T09:41:03;33.42;;;22.80;;
9322;SDS011;4700;48.822;9.270;2022-12-18T09:44:01;41.92;;;28.75;;
9322;SDS011;4700;48.822;9.270;2022-12-18T09:46:51;34.75;;;25.13;;
9322;SDS011;4700;48.822;9.270;2022-12-18T09:49:46;29.23;;;24.80;;
9322;SDS011;4700;48.822;9.270;2022-12-18T09:52:35;43.72;;;29.70;;
9322;SDS011;4700;48.822;9.270;2022-12-18T09:55:28;29.33;;;24.20;;
9322;SDS011;4700;48.822;9.270;2022-12-18T09:58:19;39.55;;;22.30;;
9322;SDS011;4700;48.822;9.270;2022-12-18T10:01:11;35.33;;;23.77;;
9322;SDS011;4700;48.822;9.270;2022-12-18T10:03:59;31.77;;;20.08;;
9322;SDS011;4700;48.822;9.270;2022-12-18T10:06:48;34.75;;;22.55;;
9322;SDS011;4700;48.822;9.270;2022-12-18T10:09:43;43.00;;;26.55;;
9322;SDS011;4700;48.822;9.270;2022-12-18T10:12:38;37.20;;;25.13;;
9322;SDS011;4700;48.822;9.270;2022-12-18T10:15:30;44.33;;;25.10;;
9322;SDS011;4700;48.822;9.270;2022-12-18T10:18:23;48.75;;;27.70;;
9322;SDS011;4700;48.822;9.270;2022-12-18T10:21:18;29.30;;;24.70;;
9322;SDS011;4700;48.822;9.270;2022-12-18T10:24:13;40.63;;;30.65;;
9322;SDS011;4700;48.822;9.270;2022-12-18T10:27:09;36.95;;;25.40;;
9322;SDS011;4700;48.822;9.270;2022-12-18T10:29:58;36.22;;;24.05;;
9322;SDS011;4700;48.822;9.270;2022-12-18T10:32:46;33.90;;;24.65;;
9322;SDS011;4700;48.822;9.270;2022-12-18T10:35:32;42.33;;;28.98;;
9322;SDS011;4700;48.822;9.270;2022-12-18T10:38:23;48.75;;;27.92;;
9322;SDS011;4700;48.822;9.270;2022-12-18T10:41:24;41.28;;;23.63;;
9322;SDS011;4700;48.822;9.270;2022-12-18T10:44:14;29.35;;;22.05;;
9322;SDS011;4700;48.822;9.270;2022-12-18T10:47:03;38.20;;;24.00;;
9322;SDS011;4700;48.822;9.270;2022-12-18T10:49:52;46.88;;;26.95;;
9322;SDS011;4700;48.822;9.270;2022-12-18T10:52:39;39.63;;;23.42;;
9322;SDS011;4700;48.822;9.270;2022-12-18T10:55:27;42.80;;;23.52;;
9322;SDS011;4700;48.822;9.270;2022-12-18T10:58:21;38.40;;;25.17;;
9322;SDS011;4700;48.822;9.270;2022-12-18T11:01:10;35.22;;;22.98;;
9322;SDS011;4700;48.822;9.270;2022-12-18T11:04:01;36.13;;;22.38;;
9322;SDS011;4700;48.822;9.270;2022-12-18T11:06:54;32.17;;;18.63;;
9322;SDS011;4700;48.822;9.270;2022-12-18T11:09:41;37.67;;;21.92;;
9322;SDS011;4700;48.822;9.270;2022-12-18T11:12:28;49.38;;;24.80;;
9322;SDS011;4700;48.822;9.270;2022-12-18T11:15:16;32.78;;;22.00;;
9322;SDS011;4700;48.822;9.270;2022-12-18T11:18:08;36.42;;;21.70;;
9322;SDS011;4700;48.822;9.270;2022-12-18T11:21:05;37.10;;;20.92;;
9322;SDS011;4700;48.822;9.270;2022-12-18T11:23:53;47.05;;;22.65;;
9322;SDS011;4700;48.822;9.270;2022-12-18T11:26:39;33.10;;;20.05;;
9322;SDS011;4700;48.822;9.270;2022-12-18T11:29:31;30.80;;;21.55;;
9322;SDS011;4700;48.822;9.270;2022-12-18T11:32:29;31.83;;;21.13;;
9322;SDS011;4700;48.822;9.270;2022-12-18T11:35:19;27.05;;;16.65;;
9322;SDS011;4700;48.822;9.270;2022-12-18T11:38:14;30.20;;;19.23;;
9322;SDS011;4700;48.822;9.270;2022-12-18T11:41:07;21.63;;;12.95;;
9322;SDS011;4700;48.822;9.270;2022-12-18T11:44:04;20.52;;;14.30;;
9322;SDS011;4700;48.822;9.270;2022-12-18T11:46:55;33.85;;;17.20;;
9322;SDS011;4700;48.822;9.270;2022-12-18T11:49:46;30.08;;;19.75;;
9322;SDS011;4700;48.822;9.270;2022-12-18T11:52:36;36.83;;;21.80;;
9322;SDS011;4700;48.822;9.270;2022-12-18T11:55:27;36.20;;;21.23;;
9322;SDS011;4700;48.822;9.270;2022-12-18T11:58:23;36.17;;;20.90;;
9322;SDS011;4700;48.822;9.270;2022-12-18T12:01:25;28.77;;;19.05;;
9322;SDS011;4700;48.822;9.270;2022-12-18T12:04:27;31.10;;;18.05;;
9322;SDS011;4700;48.822;9.270;2022-12-18T12:07:31;45.03;;;22.40;;
9322;SDS011;4700;48.822;9.270;2022-12-18T12:10:28;39.53;;;20.33;;
9322;SDS011;4700;48.822;9.270;2022-12-18T12:13:31;31.17;;;18.33;;
9322;SDS011;4700;48.822;9.270;2022-12-18T12:16:27;33.30;;;20.33;;
9322;SDS011;4700;48.822;9.270;2022-12-18T12:19:24;34.22;;;18.45;;
9322;SDS011;4700;48.822;9.270;2022-12-18T12:22:22;30.27;;;17.83;;
9322;SDS011;4700;48.822;9.270;2022-12-18T12:25:19;30.85;;;18.20;;
9322;SDS011;4700;48.822;9.270;2022-12-18T12:28:15;36.60;;;19.98;;
9322;SDS011;4700;48.822;9.270;2022-12-18T12:31:14;32.65;;;20.25;;
9322;SDS011;4700;48.822;9.270;2022-12-18T12:34:12;32.95;;;20.48;;
9322;SDS011;4700;48.822;9.270;2022-12-18T12:37:12;29.63;;;20.70;;
9322;SDS011;4700;48.822;9.270;2022-12-18T12:40:11;36.85;;;21.63;;
9322;SDS011;4700;48.822;9.270;2022-12-18T12:43:02;38.45;;;22.20;;
9322;SDS011;4700;48.822;9.270;2022-12-18T12:46:00;36.47;;;22.55;;
9322;SDS011;4700;48.822;9.270;2022-12-18T12:48:49;36.92;;;22.65;;
9322;SDS011;4700;48.822;9.270;2022-12-18T12:51:39;34.47;;;21.05;;
9322;SDS011;4700;48.822;9.270;2022-12-18T12:54:28;36.17;;;22.80;;
9322;SDS011;4700;48.822;9.270;2022-12-18T12:57:16;31.80;;;21.65;;
9322;SDS011;4700;48.822;9.270;2022-12-18T13:00:10;38.15;;;24.73;;
9322;SDS011;4700;48.822;9.270;2022-12-18T13:03:01;44.80;;;24.42;;
9322;SDS011;4700;48.822;9.270;2022-12-18T13:05:54;33.75;;;22.45;;
9322;SDS011;4700;48.822;9.270;2022-12-18T13:08:52;31.55;;;22.88;;
9322;SDS011;4700;48.822;9.270;2022-12-18T13:11:41;31.27;;;21.50;;
9322;SDS011;4700;48.822;9.270;2022-12-18T13:14:45;32.35;;;20.00;;
9322;SDS011;4700;48.822;9.270;2022-12-18T13:17:32;29.20;;;19.27;;
9322;SDS011;4700;48.822;9.270;2022-12-18T13:20:18;35.13;;;21.70;;
9322;SDS011;4700;48.822;9.270;2022-12-18T13:23:18;36.90;;;21.83;;
9322;SDS011;4700;48.822;9.270;2022-12-18T13:32:27;43.30;;;24.67;;
9322;SDS011;4700;48.822;9.270;2022-12-18T13:38:32;28.38;;;19.02;;
9322;SDS011;4700;48.822;9.270;2022-12-18T13:41:23;27.63;;;18.23;;
9322;SDS011;4700;48.822;9.270;2022-12-18T13:44:12;39.13;;;20.90;;
9322;SDS011;4700;48.822;9.270;2022-12-18T13:47:24;39.13;;;22.33;;
9322;SDS011;4700;48.822;9.270;2022-12-18T13:50:20;33.35;;;20.55;;
9322;SDS011;4700;48.822;9.270;2022-12-18T13:53:27;33.65;;;21.20;;
9322;SDS011;4700;48.822;9.270;2022-12-18T13:56:18;41.03;;;23.77;;
9322;SDS011;4700;48.822;9.270;2022-12-18T13:59:17;36.72;;;23.52;;
9322;SDS011;4700;48.822;9.270;2022-12-18T14:02:07;31.08;;;21.02;;
9322;SDS011;4700;48.822;9.270;2022-12-18T14:04:58;32.90;;;21.20;;
9322;SDS011;4700;48.822;9.270;2022-12-18T14:07:47;39.00;;;24.70;;
9322;SDS011;4700;48.822;9.270;2022-12-18T14:10:34;40.33;;;22.52;;
9322;SDS011;4700;48.822;9.270;2022-12-18T14:13:27;34.22;;;22.63;;
9322;SDS011;4700;48.822;9.270;2022-12-18T14:16:18;34.15;;;20.70;;
9322;SDS011;4700;48.822;9.270;2022-12-18T14:19:04;38.17;;;21.13;;
9322;SDS011;4700;48.822;9.270;2022-12-18T14:21:56;38.40;;;24.17;;
9322;SDS011;4700;48.822;9.270;2022-12-18T14:24:42;37.25;;;21.05;;
9322;SDS011;4700;48.822;9.270;2022-12-18T14:27:36;33.22;;;20.92;;
9322;SDS011;4700;48.822;9.270;2022-12-18T14:30:23;35.33;;;22.65;;
9322;SDS011;4700;48.822;9.270;2022-12-18T14:33:14;33.28;;;23.23;;
9322;SDS011;4700;48.822;9.270;2022-12-18T14:36:03;33.65;;;22.40;;
9322;SDS011;4700;48.822;9.270;2022-12-18T14:38:50;31.20;;;22.00;;
9322;SDS011;4700;48.822;9.270;2022-12-18T14:41:37;31.42;;;22.60;;
9322;SDS011;4700;48.822;9.270;2022-12-18T14:44:24;30.73;;;21.15;;
9322;SDS011;4700;48.822;9.270;2022-12-18T14:47:12;32.33;;;17.95;;
9322;SDS011;4700;48.822;9.270;2022-12-18T14:49:59;39.50;;;19.20;;
9322;SDS011;4700;48.822;9.270;2022-12-18T14:52:45;41.00;;;20.02;;
9322;SDS011;4700;48.822;9.270;2022-12-18T14:55:31;42.40;;;21.25;;
9322;SDS011;4700;48.822;9.270;2022-12-18T14:58:17;31.50;;;18.30;;
9322;SDS011;4700;48.822;9.270;2022-12-18T15:01:36;35.58;;;18.33;;
9322;SDS011;4700;48.822;9.270;2022-12-18T15:04:48;30.73;;;17.20;;
9322;SDS011;4700;48.822;9.270;2022-12-18T15:08:24;32.03;;;18.15;;
9322;SDS011;4700;48.822;9.270;2022-12-18T15:11:26;31.50;;;17.00;;
9322;SDS011;4700;48.822;9.270;2022-12-18T15:14:46;34.97;;;18.67;;
9322;SDS011;4700;48.822;9.270;2022-12-18T15:17:45;34.72;;;18.80;;
9322;SDS011;4700;48.822;9.270;2022-12-18T15:21:00;31.42;;;19.42;;
9322;SDS011;4700;48.822;9.270;2022-12-18T15:24:13;31.85;;;18.23;;
9322;SDS011;4700;48.822;9.270;2022-12-18T15:27:28;34.25;;;19.70;;
9322;SDS011;4700;48.822;9.270;2022-12-18T15:30:35;31.83;;;17.73;;
9322;SDS011;4700;48.822;9.270;2022-12-18T15:34:09;33.65;;;18.10;;
9322;SDS011;4700;48.822;9.270;2022-12-18T15:37:04;32.70;;;20.67;;
9322;SDS011;4700;48.822;9.270;2022-12-18T15:39:59;43.47;;;19.08;;
9322;SDS011;4700;48.822;9.270;2022-12-18T15:43:11;32.33;;;20.08;;
9322;SDS011;4700;48.822;9.270;2022-12-18T15:46:20;24.85;;;18.20;;
9322;SDS011;4700;48.822;9.270;2022-12-18T15:49:14;31.83;;;19.48;;
9322;SDS011;4700;48.822;9.270;2022-12-18T15:52:18;28.15;;;15.95;;
9322;SDS011;4700;48.822;9.270;2022-12-18T15:55:10;38.63;;;19.63;;
9322;SDS011;4700;48.822;9.270;2022-12-18T15:58:16;29.58;;;19.52;;
9322;SDS011;4700;48.822;9.270;2022-12-18T16:01:09;30.10;;;18.60;;
9322;SDS011;4700;48.822;9.270;2022-12-18T16:04:05;33.90;;;18.65;;
9322;SDS011;4700;48.822;9.270;2022-12-18T16:07:01;31.80;;;17.35;;
9322;SDS011;4700;48.822;9.270;2022-12-18T16:09:54;29.23;;;17.20;;
9322;SDS011;4700;48.822;9.270;2022-12-18T16:12:42;27.42;;;18.10;;
9322;SDS011;4700;48.822;9.270;2022-12-18T16:15:30;35.75;;;21.08;;
9322;SDS011;4700;48.822;9.270;2022-12-18T16:18:21;37.35;;;20.08;;
9322;SDS011;4700;48.822;9.270;2022-12-18T16:21:13;32.15;;;18.30;;
9322;SDS011;4700;48.822;9.270;2022-12-18T16:24:13;34.13;;;19.85;;
9322;SDS011;4700;48.822;9.270;2022-12-18T16:27:03;26.52;;;16.02;;
9322;SDS011;4700;48.822;9.270;2022-12-18T16:30:02;36.45;;;19.10;;
9322;SDS011;4700;48.822;9.270;2022-12-18T16:32:57;29.30;;;18.00;;
9322;SDS011;4700;48.822;9.270;2022-12-18T16:41:12;31.38;;;19.30;;
9322;SDS011;4700;48.822;9.270;2022-12-18T16:44:22;32.45;;;18.65;;
9322;SDS011;4700;48.822;9.270;2022-12-18T16:47:11;30.50;;;18.58;;
9322;SDS011;4700;48.822;9.270;2022-12-18T16:49:57;31.60;;;19.90;;
9322;SDS011;4700;48.822;9.270;2022-12-18T16:52:47;29.67;;;16.83;;
9322;SDS011;4700;48.822;9.270;2022-12-18T17:29:18;39.42;;;20.35;;
9322;SDS011;4700;48.822;9.270;2022-12-18T17:34:43;51.28;;;22.02;;
9322;SDS011;4700;48.822;9.270;2022-12-18T17:37:39;33.42;;;19.88;;
9322;SDS011;4700;48.822;9.270;2022-12-18T17:40:26;30.25;;;17.27;;
9322;SDS011;4700;48.822;9.270;2022-12-18T17:43:19;30.23;;;18.73;;
9322;SDS011;4700;48.822;9.270;2022-12-18T17:46:10;27.40;;;16.13;;
9322;SDS011;4700;48.822;9.270;2022-12-18T17:49:05;25.75;;;16.83;;
9322;SDS011;4700;48.822;9.270;2022-12-18T17:51:57;30.15;;;18.50;;
9322;SDS011;4700;48.822;9.270;2022-12-18T17:54:53;31.05;;;16.25;;
9322;SDS011;4700;48.822;9.270;2022-12-18T17:57:47;27.65;;;17.00;;
9322;SDS011;4700;48.822;9.270;2022-12-18T18:00:44;27.38;;;19.60;;
9322;SDS011;4700;48.822;9.270;2022-12-18T18:03:38;21.67;;;15.88;;
9322;SDS011;4700;48.822;9.270;2022-12-18T18:06:27;35.03;;;18.80;;
9322;SDS011;4700;48.822;9.270;2022-12-18T18:09:26;33.00;;;20.00;;
9322;SDS011;4700;48.822;9.270;2022-12-18T18:12:28;32.80;;;17.30;;
9322;SDS011;4700;48.822;9.270;2022-12-18T18:15:33;26.13;;;15.88;;
9322;SDS011;4700;48.822;9.270;2022-12-18T18:18:29;25.27;;;14.65;;
9322;SDS011;4700;48.822;9.270;2022-12-18T18:21:33;29.45;;;19.92;;
9322;SDS011;4700;48.822;9.270;2022-12-18T18:24:30;27.10;;;16.05;;
9322;SDS011;4700;48.822;9.270;2022-12-18T18:27:36;25.10;;;17.33;;
9322;SDS011;4700;48.822;9.270;2022-12-18T18:30:41;30.33;;;18.33;;
9322;SDS011;4700;48.822;9.270;2022-12-18T18:33:43;28.50;;;17.02;;
9322;SDS011;4700;48.822;9.270;2022-12-18T18:36:56;31.85;;;19.35;;
9322;SDS011;4700;48.822;9.270;2022-12-18T18:40:01;28.33;;;17.02;;
9322;SDS011;4700;48.822;9.270;2022-12-18T18:43:06;25.27;;;16.40;;
9322;SDS011;4700;48.822;9.270;2022-12-18T18:46:05;39.17;;;18.05;;
9322;SDS011;4700;48.822;9.270;2022-12-18T18:48:57;28.52;;;17.42;;
9322;SDS011;4700;48.822;9.270;2022-12-18T18:51:51;28.45;;;18.77;;
9322;SDS011;4700;48.822;9.270;2022-12-18T18:54:47;36.90;;;17.55;;
9322;SDS011;4700;48.822;9.270;2022-12-18T18:57:43;32.67;;;15.65;;
9322;SDS011;4700;48.822;9.270;2022-12-18T19:00:38;21.70;;;15.18;;
9322;SDS011;4700;48.822;9.270;2022-12-18T19:13:53;49.05;;;22.40;;
9322;SDS011;4700;48.822;9.270;2022-12-18T19:19:23;29.10;;;17.38;;
9322;SDS011;4700;48.822;9.270;2022-12-18T19:22:36;31.52;;;16.98;;
9322;SDS011;4700;48.822;9.270;2022-12-18T19:25:25;34.58;;;18.52;;
9322;SDS011;4700;48.822;9.270;2022-12-18T19:28:38;39.50;;;21.40;;
9322;SDS011;4700;48.822;9.270;2022-12-18T19:32:15;31.00;;;18.27;;
9322;SDS011;4700;48.822;9.270;2022-12-18T19:35:23;31.45;;;18.23;;
9322;SDS011;4700;48.822;9.270;2022-12-18T19:38:40;28.00;;;16.65;;
9322;SDS011;4700;48.822;9.270;2022-12-18T19:41:34;26.95;;;17.98;;
9322;SDS011;4700;48.822;9.270;2022-12-18T19:44:45;29.10;;;16.65;;
9322;SDS011;4700;48.822;9.270;2022-12-18T19:47:35;29.92;;;16.45;;
9322;SDS011;4700;48.822;9.270;2022-12-18T19:50:25;26.80;;;15.82;;
9322;SDS011;4700;48.822;9.270;2022-12-18T19:53:11;24.02;;;14.52;;
9322;SDS011;4700;48.822;9.270;2022-12-18T19:55:58;24.08;;;15.40;;
9322;SDS011;4700;48.822;9.270;2022-12-18T19:58:49;29.50;;;17.73;;
9322;SDS011;4700;48.822;9.270;2022-12-18T20:01:38;33.75;;;18.30;;
9322;SDS011;4700;48.822;9.270;2022-12-18T20:04:24;20.52;;;14.43;;
9322;SDS011;4700;48.822;9.270;2022-12-18T20:07:12;27.00;;;17.38;;
9322;SDS011;4700;48.822;9.270;2022-12-18T20:09:58;28.02;;;17.08;;
9322;SDS011;4700;48.822;9.270;2022-12-18T20:12:48;24.65;;;17.20;;
9322;SDS011;4700;48.822;9.270;2022-12-18T20:15:48;28.92;;;17.20;;
9322;SDS011;4700;48.822;9.270;2022-12-18T20:27:34;26.65;;;17.27;;
9322;SDS011;4700;48.822;9.270;2022-12-18T20:30:37;28.77;;;16.35;;
9322;SDS011;4700;48.822;9.270;2022-12-18T20:33:59;28.65;;;16.80;;
9322;SDS011;4700;48.822;9.270;2022-12-18T20:36:59;25.33;;;16.73;;
9322;SDS011;4700;48.822;9.270;2022-12-18T20:39:49;22.98;;;16.58;;
9322;SDS011;4700;48.822;9.270;2022-12-18T20:42:40;27.33;;;17.30;;
9322;SDS011;4700;48.822;9.270;2022-12-18T20:45:29;28.55;;;16.67;;
9322;SDS011;4700;48.822;9.270;2022-12-18T20:48:16;34.85;;;17.35;;
9322;SDS011;4700;48.822;9.270;2022-12-18T20:51:08;23.23;;;14.98;;
9322;SDS011;4700;48.822;9.270;2022-12-18T20:54:08;25.38;;;15.18;;
9322;SDS011;4700;48.822;9.270;2022-12-18T20:57:08;26.33;;;17.65;;
9322;SDS011;4700;48.822;9.270;2022-12-18T21:08:04;34.20;;;18.60;;
9322;SDS011;4700;48.822;9.270;2022-12-18T21:11:16;23.30;;;15.70;;
9322;SDS011;4700;48.822;9.270;2022-12-18T21:14:38;24.95;;;15.75;;
9322;SDS011;4700;48.822;9.270;2022-12-18T21:17:15;28.13;;;16.38;;
9322;SDS011;4700;48.822;9.270;2022-12-18T21:20:18;32.20;;;18.42;;
9322;SDS011;4700;48.822;9.270;2022-12-18T21:23:32;25.40;;;15.35;;
9322;SDS011;4700;48.822;9.270;2022-12-18T21:26:58;30.30;;;18.20;;
9322;SDS011;4700;48.822;9.270;2022-12-18T21:32:49;24.08;;;17.55;;
9322;SDS011;4700;48.822;9.270;2022-12-18T21:53:01;28.92;;;17.48;;
9322;SDS011;4700;48.822;9.270;2022-12-18T21:56:33;31.25;;;18.25;;
9322;SDS011;4700;48.822;9.270;2022-12-18T22:00:18;29.38;;;17.55;;
9322;SDS011;4700;48.822;9.270;2022-12-18T22:03:17;23.95;;;16.98;;
9322;SDS011;4700;48.822;9.270;2022-12-18T22:09:44;31.30;;;17.55;;
9322;SDS011;4700;48.822;9.270;2022-12-18T22:12:35;26.88;;;17.02;;
9322;SDS011;4700;48.822;9.270;2022-12-18T22:15:31;24.83;;;16.70;;
9322;SDS011;4700;48.822;9.270;2022-12-18T22:18:33;23.67;;;16.52;;
9322;SDS011;4700;48.822;9.270;2022-12-18T22:21:31;30.42;;;16.63;;
9322;SDS011;4700;48.822;9.270;2022-12-18T22:24:40;24.67;;;17.20;;
9322;SDS011;4700;48.822;9.270;2022-12-18T22:27:51;26.58;;;16.33;;
9322;SDS011;4700;48.822;9.270;2022-12-18T22:31:09;29.75;;;16.20;;
9322;SDS011;4700;48.822;9.270;2022-12-18T22:34:17;28.77;;;18.70;;
9322;SDS011;4700;48.822;9.270;2022-12-18T22:45:03;31.05;;;19.63;;
9322;SDS011;4700;48.822;9.270;2022-12-18T22:48:14;23.95;;;15.80;;
9322;SDS011;4700;48.822;9.270;2022-12-18T22:51:36;33.60;;;17.90;;
9322;SDS011;4700;48.822;9.270;2022-12-18T22:54:34;30.05;;;17.13;;
9322;SDS011;4700;48.822;9.270;2022-12-18T22:57:43;37.28;;;20.52;;
9322;SDS011;4700;48.822;9.270;2022-12-18T23:00:53;29.83;;;16.83;;
9322;SDS011;4700;48.822;9.270;2022-12-18T23:04:00;30.35;;;17.08;;
9322;SDS011;4700;48.822;9.270;2022-12-18T23:07:02;24.75;;;17.35;;
9322;SDS011;4700;48.822;9.270;2022-12-18T23:10:27;30.63;;;17.35;;
9322;SDS011;4700;48.822;9.270;2022-12-18T23:13:45;26.95;;;18.08;;
9322;SDS011;4700;48.822;9.270;2022-12-18T23:17:15;27.08;;;16.70;;
9322;SDS011;4700;48.822;9.270;2022-12-18T23:20:41;30.73;;;18.48;;
9322;SDS011;4700;48.822;9.270;2022-12-18T23:23:58;19.85;;;14.48;;
9322;SDS011;4700;48.822;9.270;2022-12-18T23:27:19;32.25;;;17.52;;
9322;SDS011;4700;48.822;9.270;2022-12-18T23:30:21;29.35;;;17.58;;
9322;SDS011;4700;48.822;9.270;2022-12-18T23:33:33;33.05;;;18.65;;
9322;SDS011;4700;48.822;9.270;2022-12-18T23:36:59;30.90;;;17.00;;
9322;SDS011;4700;48.822;9.270;2022-12-18T23:39:56;27.10;;;16.73;;
9322;SDS011;4700;48.822;9.270;2022-12-18T23:45:48;29.40;;;18.67;;
9322;SDS011;4700;48.822;9.270;2022-12-18T23:49:17;29.58;;;16.70;;
9322;SDS011;4700;48.822;9.270;2022-12-18T23:52:37;25.73;;;14.32;;
9322;SDS011;4700;48.822;9.270;2022-12-18T23:55:41;32.95;;;18.63;;
9322;SDS011;4700;48.822;9.270;2022-12-18T23:58:51;33.75;;;19.35;;
